createdAt,value
2022-08-29T00:02:52.003Z,76.66
2022-08-29T00:05:54.102Z,76.89
2022-08-29T00:08:56.519Z,77.24
2022-08-29T00:11:58.586Z,78.32
2022-08-29T00:15:00.747Z,78.05
2022-08-29T00:18:02.895Z,78.87
2022-08-29T00:21:07.550Z,78.24
2022-08-29T00:24:09.627Z,77.98
2022-08-29T00:27:11.704Z,78.19
2022-08-29T00:30:14.384Z,77.97
2022-08-29T00:33:16.469Z,79.11
2022-08-29T00:36:18.548Z,78.60
2022-08-29T00:39:23.128Z,78.80
2022-08-29T00:42:25.838Z,79.17
2022-08-29T00:45:28.019Z,79.27
2022-08-29T00:48:30.146Z,79.61
2022-08-29T00:51:32.301Z,79.28
2022-08-29T00:54:34.618Z,79.00
2022-08-29T00:57:36.906Z,78.84
2022-08-29T01:00:39.122Z,79.19
2022-08-29T01:03:42.946Z,79.34
2022-08-29T01:06:45.339Z,77.40
2022-08-29T01:09:47.479Z,77.58
2022-08-29T01:12:49.758Z,77.23
2022-08-29T01:15:52.002Z,76.75
2022-08-29T01:18:57.062Z,77.38
2022-08-29T01:22:10.495Z,78.77
2022-08-29T01:25:16.970Z,76.18
2022-08-29T01:28:28.759Z,77.43
2022-08-29T01:31:56.207Z,77.37
2022-08-29T01:34:59.698Z,75.98
2022-08-29T01:38:01.772Z,76.31
2022-08-29T01:41:03.971Z,75.01
2022-08-29T01:44:11.979Z,75.76
2022-08-29T01:47:14.108Z,75.89
2022-08-29T01:50:17.679Z,76.60
2022-08-29T01:53:19.760Z,76.67
2022-08-29T01:56:28.235Z,77.92
2022-08-29T01:59:31.024Z,75.73
2022-08-29T02:02:34.137Z,75.94
2022-08-29T02:05:36.799Z,75.12
2022-08-29T02:08:40.175Z,72.65
2022-08-29T02:11:42.267Z,73.21
2022-08-29T02:14:44.539Z,73.59
2022-08-29T02:17:48.443Z,74.19
2022-08-29T02:20:50.705Z,73.51
2022-08-29T02:23:54.118Z,74.93
2022-08-29T02:26:56.691Z,75.27
2022-08-29T02:29:59.505Z,74.80
2022-08-29T02:33:01.595Z,75.04
2022-08-29T02:36:07.527Z,75.28
2022-08-29T02:39:10.107Z,74.66
2022-08-29T02:42:13.002Z,74.54
2022-08-29T02:45:15.179Z,75.98
2022-08-29T02:48:17.950Z,75.96
2022-08-29T02:51:27.723Z,76.00
2022-08-29T02:54:29.858Z,76.43
2022-08-29T02:57:31.949Z,76.79
2022-08-29T03:00:35.757Z,76.72
2022-08-29T03:03:38.007Z,75.29
2022-08-29T03:06:40.085Z,75.95
2022-08-29T03:09:42.380Z,76.31
2022-08-29T03:12:44.855Z,76.18
2022-08-29T03:15:47.783Z,75.85
2022-08-29T03:18:50.100Z,76.76
2022-08-29T03:21:52.210Z,74.85
2022-08-29T03:24:54.303Z,76.85
2022-08-29T03:27:56.951Z,75.96
2022-08-29T03:30:59.073Z,75.05
2022-08-29T03:34:01.215Z,75.92
2022-08-29T03:37:03.356Z,76.64
2022-08-29T03:40:06.392Z,75.64
2022-08-29T03:43:09.601Z,75.42
2022-08-29T03:46:11.719Z,76.09
2022-08-29T03:49:15.743Z,75.19
2022-08-29T03:52:17.874Z,75.35
2022-08-29T03:55:20.337Z,76.28
2022-08-29T03:58:22.415Z,76.46
2022-08-29T04:01:28.390Z,76.79
2022-08-29T04:04:49.375Z,77.14
2022-08-29T04:07:56.125Z,75.82
2022-08-29T04:10:58.286Z,75.96
2022-08-29T04:14:00.363Z,76.70
2022-08-29T04:17:04.281Z,74.78
2022-08-29T04:20:07.878Z,74.58
2022-08-29T04:23:12.645Z,74.98
2022-08-29T04:26:36.874Z,75.49
2022-08-29T04:29:39.402Z,76.27
2022-08-29T04:32:41.587Z,75.04
2022-08-29T04:35:43.706Z,74.24
2022-08-29T04:38:45.798Z,74.89
2022-08-29T04:41:47.895Z,75.74
2022-08-29T04:44:49.975Z,75.30
2022-08-29T04:47:52.162Z,74.51
2022-08-29T04:50:58.323Z,75.71
2022-08-29T04:54:00.435Z,74.31
2022-08-29T04:57:03.399Z,75.32
2022-08-29T05:00:13.916Z,74.36
2022-08-29T05:03:16.016Z,74.14
2022-08-29T05:06:19.746Z,74.50
2022-08-29T05:09:24.685Z,74.39
2022-08-29T05:12:28.873Z,74.47
2022-08-29T05:15:31.343Z,75.38
2022-08-29T05:18:33.725Z,75.24
2022-08-29T05:21:37.518Z,73.96
2022-08-29T05:24:39.677Z,74.43
2022-08-29T05:27:41.905Z,73.80
2022-08-29T05:30:44.231Z,74.54
2022-08-29T05:33:46.423Z,75.83
2022-08-29T05:36:48.577Z,75.41
2022-08-29T05:39:50.875Z,75.92
2022-08-29T05:42:53.027Z,75.43
2022-08-29T05:46:03.673Z,75.20
2022-08-29T05:49:05.976Z,75.56
2022-08-29T05:52:08.218Z,75.05
2022-08-29T05:55:11.115Z,75.18
2022-08-29T05:58:13.468Z,75.26
2022-08-29T06:01:22.331Z,74.82
2022-08-29T06:04:28.069Z,74.69
2022-08-29T06:07:31.391Z,72.22
2022-08-29T06:10:34.055Z,73.20
2022-08-29T06:13:36.243Z,72.61
2022-08-29T06:16:39.629Z,71.58
2022-08-29T06:19:42.562Z,71.51
2022-08-29T06:22:44.659Z,69.90
2022-08-29T06:25:54.819Z,69.27
2022-08-29T06:28:57.103Z,69.19
2022-08-29T06:31:59.452Z,70.53
2022-08-29T06:35:01.663Z,68.12
2022-08-29T06:38:03.902Z,68.72
2022-08-29T06:41:11.987Z,68.18
2022-08-29T06:44:14.743Z,66.90
2022-08-29T06:47:16.905Z,66.50
2022-08-29T06:50:19.090Z,66.62
2022-08-29T06:53:31.714Z,67.34
2022-08-29T06:56:37.076Z,65.83
2022-08-29T06:59:39.508Z,64.17
2022-08-29T07:02:42.200Z,65.39
2022-08-29T07:05:44.367Z,66.30
2022-08-29T07:08:55.147Z,65.00
2022-08-29T07:11:57.794Z,63.33
2022-08-29T07:14:59.947Z,64.68
2022-08-29T07:18:02.031Z,63.47
2022-08-29T07:21:08.595Z,63.60
2022-08-29T07:24:10.803Z,62.85
2022-08-29T07:27:13.631Z,62.76
2022-08-29T07:30:16.562Z,62.73
2022-08-29T07:33:18.645Z,63.85
2022-08-29T07:36:20.725Z,63.15
2022-08-29T07:39:23.098Z,63.00
2022-08-29T07:42:25.350Z,63.57
2022-08-29T07:45:27.436Z,61.99
2022-08-29T07:48:29.527Z,63.91
2022-08-29T07:51:31.678Z,63.48
2022-08-29T07:54:33.826Z,62.15
2022-08-29T07:57:39.669Z,62.22
2022-08-29T08:00:42.116Z,62.12
2022-08-29T08:03:44.286Z,62.68
2022-08-29T08:06:47.436Z,61.36
2022-08-29T08:09:49.572Z,61.87
2022-08-29T08:12:51.787Z,60.97
2022-08-29T08:15:55.507Z,61.07
2022-08-29T08:18:57.751Z,59.75
2022-08-29T08:21:59.947Z,58.36
2022-08-29T08:25:02.703Z,58.85
2022-08-29T08:28:04.920Z,59.38
2022-08-29T08:31:08.184Z,58.89
2022-08-29T08:34:10.338Z,58.31
2022-08-29T08:37:15.940Z,58.87
2022-08-29T08:40:28.144Z,58.91
2022-08-29T08:43:50.470Z,60.28
2022-08-29T08:46:58.490Z,62.05
2022-08-29T08:50:23.656Z,59.18
2022-08-29T08:53:28.465Z,58.25
2022-08-29T08:56:39.084Z,57.50
2022-08-29T08:59:44.096Z,59.24
2022-08-29T09:03:17.175Z,57.47
2022-08-29T09:06:55.751Z,59.28
2022-08-29T09:10:33.916Z,59.21
2022-08-29T09:14:18.146Z,60.21
2022-08-29T09:17:30.983Z,62.22
2022-08-29T09:20:39.670Z,61.53
2022-08-29T09:23:54.921Z,60.53
2022-08-29T09:26:57.057Z,59.65
2022-08-29T09:30:14.947Z,59.92
2022-08-29T09:33:17.314Z,60.37
2022-08-29T09:36:48.524Z,61.89
2022-08-29T09:39:59.927Z,61.82
2022-08-29T09:43:02.925Z,62.25
2022-08-29T09:46:11.287Z,63.94
2022-08-29T09:49:18.586Z,64.46
2022-08-29T09:52:24.389Z,64.58
2022-08-29T09:55:37.524Z,64.80
2022-08-29T09:58:41.678Z,64.08
2022-08-29T10:01:43.836Z,61.69
2022-08-29T10:04:49.706Z,62.19
2022-08-29T10:07:53.522Z,59.68
2022-08-29T10:11:21.263Z,59.56
2022-08-29T10:14:35.866Z,60.69
2022-08-29T10:18:05.985Z,60.57
2022-08-29T10:21:26.500Z,60.81
2022-08-29T10:24:43.781Z,61.41
2022-08-29T10:27:55.825Z,64.54
2022-08-29T10:31:08.799Z,65.47
2022-08-29T10:34:46.897Z,64.99
2022-08-29T10:38:04.026Z,64.27
2022-08-29T10:41:40.562Z,60.89
2022-08-29T10:45:09.710Z,59.21
2022-08-29T10:48:20.243Z,60.20
2022-08-29T10:51:50.554Z,66.53
2022-08-29T10:55:17.146Z,65.10
2022-08-29T10:58:59.547Z,62.89
2022-08-29T11:02:39.651Z,60.85
2022-08-29T11:05:49.270Z,60.67
2022-08-29T11:09:35.290Z,60.33
2022-08-29T11:13:05.658Z,60.03
2022-08-29T11:16:21.351Z,59.57
2022-08-29T11:19:47.192Z,56.96
2022-08-29T11:23:04.780Z,56.08
2022-08-29T11:26:27.029Z,55.23
2022-08-29T11:29:43.190Z,53.34
2022-08-29T11:33:19.409Z,53.10
2022-08-29T11:36:49.374Z,54.94
2022-08-29T11:40:02.777Z,55.41
2022-08-29T11:43:12.174Z,57.61
2022-08-29T11:46:15.149Z,55.96
2022-08-29T11:49:37.075Z,55.53
2022-08-29T11:52:39.142Z,57.52
2022-08-29T11:55:46.308Z,55.77
2022-08-29T11:58:50.091Z,53.02
2022-08-29T12:02:00.675Z,52.28
2022-08-29T12:05:17.709Z,54.16
2022-08-29T12:08:47.144Z,52.79
2022-08-29T12:12:13.214Z,52.64
2022-08-29T12:15:29.909Z,53.04
2022-08-29T12:18:36.708Z,53.54
2022-08-29T12:21:42.199Z,52.14
2022-08-29T12:24:44.393Z,51.59
2022-08-29T12:28:43.435Z,52.08
2022-08-29T12:32:27.339Z,50.86
2022-08-29T12:36:05.579Z,51.76
2022-08-29T12:39:23.414Z,53.56
2022-08-29T12:42:51.595Z,54.17
2022-08-29T12:45:53.999Z,53.66
2022-08-29T12:49:51.664Z,53.36
2022-08-29T12:53:26.241Z,52.97
2022-08-29T12:56:28.345Z,52.07
2022-08-29T12:59:30.563Z,51.57
2022-08-29T13:02:35.999Z,51.74
2022-08-29T13:05:39.651Z,51.43
2022-08-29T13:08:42.120Z,51.39
2022-08-29T13:11:44.256Z,51.94
2022-08-29T13:15:00.319Z,51.80
2022-08-29T13:18:02.481Z,51.83
2022-08-29T13:21:34.173Z,51.74
2022-08-29T13:24:36.261Z,51.77
2022-08-29T13:27:38.343Z,52.70
2022-08-29T13:30:40.419Z,53.57
2022-08-29T13:33:46.007Z,54.27
2022-08-29T13:37:01.403Z,54.14
2022-08-29T13:40:33.174Z,53.88
2022-08-29T13:43:41.876Z,52.97
2022-08-29T13:46:47.379Z,52.42
2022-08-29T13:49:50.120Z,50.98
2022-08-29T13:52:54.525Z,50.86
2022-08-29T13:55:57.012Z,47.71
2022-08-29T13:58:59.126Z,48.68
2022-08-29T14:02:10.215Z,49.51
2022-08-29T14:05:13.800Z,52.09
2022-08-29T14:08:16.258Z,52.91
2022-08-29T14:11:18.453Z,51.66
2022-08-29T14:14:20.528Z,51.28
2022-08-29T14:17:22.711Z,51.72
2022-08-29T14:20:25.207Z,51.70
2022-08-29T14:23:27.348Z,52.08
2022-08-29T14:26:29.436Z,53.10
2022-08-29T14:29:31.932Z,53.05
2022-08-29T14:32:34.123Z,53.77
2022-08-29T14:35:36.254Z,53.91
2022-08-29T14:38:44.571Z,53.02
2022-08-29T14:41:46.782Z,54.10
2022-08-29T14:44:48.919Z,52.86
2022-08-29T14:47:50.997Z,54.07
2022-08-29T14:50:53.058Z,53.51
2022-08-29T14:53:55.185Z,53.64
2022-08-29T14:56:57.302Z,53.58
2022-08-29T14:59:59.366Z,53.80
2022-08-29T15:03:01.655Z,53.08
2022-08-29T15:06:06.122Z,53.46
2022-08-29T15:09:08.254Z,54.19
2022-08-29T15:12:14.479Z,53.26
2022-08-29T15:15:16.586Z,51.54
2022-08-29T15:18:47.997Z,51.32
2022-08-29T15:21:41.070Z,48.52
2022-08-29T15:24:43.146Z,49.87
2022-08-29T15:27:46.896Z,48.72
2022-08-29T15:30:49.144Z,48.18
2022-08-29T15:33:51.362Z,49.52
2022-08-29T15:36:54.180Z,50.61
2022-08-29T15:39:56.460Z,47.78
2022-08-29T15:42:58.650Z,45.21
2022-08-29T15:46:00.820Z,49.25
2022-08-29T15:49:03.814Z,49.85
2022-08-29T15:52:06.020Z,49.41
2022-08-29T15:55:08.379Z,49.99
2022-08-29T15:58:10.486Z,42.49
2022-08-29T16:01:12.598Z,43.98
2022-08-29T16:04:15.988Z,47.47
2022-08-29T16:07:18.185Z,48.15
2022-08-29T16:10:20.406Z,47.80
2022-08-29T16:13:22.492Z,46.60
2022-08-29T16:16:25.190Z,44.94
2022-08-29T16:19:27.503Z,46.33
2022-08-29T16:22:29.682Z,45.28
2022-08-29T16:25:32.376Z,48.42
2022-08-29T16:28:35.037Z,50.17
2022-08-29T16:31:37.364Z,50.64
2022-08-29T16:34:39.490Z,51.84
2022-08-29T16:37:41.592Z,52.72
2022-08-29T16:40:43.792Z,54.65
2022-08-29T16:43:51.768Z,54.97
2022-08-29T16:46:54.135Z,56.14
2022-08-29T16:49:56.240Z,55.49
2022-08-29T16:52:58.354Z,55.40
2022-08-29T16:56:09.198Z,56.19
2022-08-29T16:59:12.547Z,56.59
2022-08-29T17:02:14.690Z,55.85
2022-08-29T17:05:18.431Z,56.22
2022-08-29T17:08:20.471Z,56.46
2022-08-29T17:11:22.559Z,55.33
2022-08-29T17:14:24.849Z,54.06
2022-08-29T17:17:27.104Z,53.61
2022-08-29T17:20:29.184Z,54.68
2022-08-29T17:23:31.772Z,56.20
2022-08-29T17:26:35.843Z,55.89
2022-08-29T17:29:41.889Z,56.04
2022-08-29T17:32:44.379Z,55.94
2022-08-29T17:35:46.864Z,56.41
2022-08-29T17:38:49.065Z,56.58
2022-08-29T17:41:51.863Z,55.66
2022-08-29T17:44:54.592Z,55.76
2022-08-29T17:47:56.690Z,55.49
2022-08-29T17:50:58.840Z,56.33
2022-08-29T17:54:00.932Z,56.38
2022-08-29T17:57:03.694Z,55.62
2022-08-29T18:00:07.279Z,56.43
2022-08-29T18:03:12.444Z,56.39
2022-08-29T18:06:15.317Z,56.90
2022-08-29T18:09:17.628Z,56.64
2022-08-29T18:12:20.332Z,57.34
2022-08-29T18:15:22.421Z,56.05
2022-08-29T18:18:25.762Z,55.94
2022-08-29T18:21:29.524Z,55.75
2022-08-29T18:24:31.611Z,54.74
2022-08-29T18:27:33.859Z,55.27
2022-08-29T18:30:36.076Z,55.78
2022-08-29T18:33:57.208Z,56.44
2022-08-29T18:37:00.278Z,56.43
2022-08-29T18:40:04.056Z,55.40
2022-08-29T18:43:07.319Z,55.79
2022-08-29T18:46:12.099Z,56.57
2022-08-29T18:49:14.940Z,56.65
2022-08-29T18:52:17.020Z,56.74
2022-08-29T18:55:19.399Z,57.27
2022-08-29T18:58:28.070Z,57.09
2022-08-29T19:01:30.471Z,57.08
2022-08-29T19:04:32.632Z,56.99
2022-08-29T19:07:34.986Z,56.84
2022-08-29T19:10:37.219Z,57.43
2022-08-29T19:13:44.083Z,57.06
2022-08-29T19:16:46.846Z,56.98
2022-08-29T19:20:10.460Z,57.08
2022-08-29T19:23:14.631Z,57.73
2022-08-29T19:26:28.395Z,58.28
2022-08-29T19:29:31.150Z,57.76
2022-08-29T19:32:33.235Z,57.93
2022-08-29T19:35:38.001Z,57.47
2022-08-29T19:38:41.723Z,59.48
2022-08-29T19:41:43.827Z,59.51
2022-08-29T19:44:45.943Z,59.42
2022-08-29T19:47:50.439Z,59.22
2022-08-29T19:50:53.972Z,58.67
2022-08-29T19:53:57.195Z,58.67
2022-08-29T19:56:59.568Z,57.91
2022-08-29T20:00:02.125Z,58.59
2022-08-29T20:03:14.931Z,58.19
2022-08-29T20:06:17.272Z,58.34
2022-08-29T20:12:26.367Z,59.37
2022-08-29T20:15:30.919Z,58.65
2022-08-29T20:18:33.786Z,58.72
2022-08-29T20:21:36.174Z,58.70
2022-08-29T20:24:38.251Z,58.72
2022-08-29T20:27:40.550Z,58.94
2022-08-29T20:30:42.885Z,59.52
2022-08-29T20:33:47.404Z,58.81
2022-08-29T20:37:08.075Z,59.67
2022-08-29T20:40:13.486Z,58.74
2022-08-29T20:43:16.408Z,60.39
2022-08-29T20:46:18.530Z,60.53
2022-08-29T20:49:23.239Z,60.85
2022-08-29T20:52:25.378Z,60.69
2022-08-29T20:55:27.487Z,62.25
2022-08-29T20:58:30.125Z,62.65
2022-08-29T21:01:33.313Z,61.92
2022-08-29T21:04:54.195Z,62.53
2022-08-29T21:07:56.384Z,60.60
2022-08-29T21:10:59.476Z,61.49
2022-08-29T21:14:01.614Z,62.45
2022-08-29T21:17:05.448Z,62.20
2022-08-29T21:20:08.710Z,62.47
2022-08-29T21:23:12.205Z,62.50
2022-08-29T21:26:14.935Z,62.22
2022-08-29T21:29:17.293Z,62.27
2022-08-29T21:32:22.405Z,63.03
2022-08-29T21:35:24.696Z,63.38
2022-08-29T21:38:29.101Z,63.85
2022-08-29T21:41:31.796Z,64.11
2022-08-29T21:44:34.035Z,65.15
2022-08-29T21:47:37.273Z,66.98
2022-08-29T21:50:39.381Z,66.74
2022-08-29T21:53:41.602Z,66.82
2022-08-29T21:56:44.164Z,67.98
2022-08-29T21:59:46.351Z,69.16
2022-08-29T22:02:48.734Z,69.11
2022-08-29T22:05:50.860Z,69.82
2022-08-29T22:08:54.747Z,69.32
2022-08-29T22:11:58.051Z,69.26
2022-08-29T22:15:18.979Z,70.31
2022-08-29T22:18:22.408Z,70.43
2022-08-29T22:21:24.782Z,70.72
2022-08-29T22:24:26.850Z,70.04
2022-08-29T22:27:28.943Z,69.98
2022-08-29T22:30:32.410Z,70.12
2022-08-29T22:33:35.434Z,68.71
2022-08-29T22:36:37.525Z,68.21
2022-08-29T22:39:39.602Z,67.46
2022-08-29T22:42:41.792Z,68.60
2022-08-29T22:45:44.016Z,67.50
2022-08-29T22:48:46.118Z,67.18
2022-08-29T22:51:49.053Z,67.88
2022-08-29T22:54:51.155Z,65.90
2022-08-29T22:57:53.249Z,67.33
2022-08-29T23:00:55.937Z,67.41
2022-08-29T23:03:58.787Z,67.26
2022-08-29T23:07:01.120Z,67.17
2022-08-29T23:10:04.175Z,67.53
2022-08-29T23:13:06.243Z,69.79
2022-08-29T23:16:08.415Z,69.00
2022-08-29T23:19:10.567Z,70.02
2022-08-29T23:22:12.828Z,71.04
2022-08-29T23:25:16.119Z,70.96
2022-08-29T23:28:18.229Z,71.08
2022-08-29T23:31:21.101Z,70.46
2022-08-29T23:34:24.086Z,73.14
2022-08-29T23:37:26.195Z,73.28
2022-08-29T23:40:28.482Z,74.38
2022-08-29T23:43:31.103Z,71.82
2022-08-29T23:46:39.007Z,72.42
2022-08-29T23:49:41.232Z,71.99
2022-08-29T23:52:43.879Z,72.96
2022-08-29T23:55:46.294Z,71.09
2022-08-29T23:58:48.397Z,71.40
